sensor_id;sensor_type;location;lat;lon;timestamp;P1;durP1;ratioP1;P2;durP2;ratioP2
4182;SDS011;2105;52.300;9.182;2022-12-18T00:01:31;16.13;;;14.50;;
4182;SDS011;2105;52.300;9.182;2022-12-18T00:04:00;15.57;;;14.00;;
4182;SDS011;2105;52.300;9.182;2022-12-18T00:06:32;15.97;;;14.50;;
4182;SDS011;2105;52.300;9.182;2022-12-18T00:08:59;17.97;;;15.37;;
4182;SDS011;2105;52.300;9.182;2022-12-18T00:11:30;16.07;;;14.60;;
4182;SDS011;2105;52.300;9.182;2022-12-18T00:13:58;14.53;;;13.30;;
4182;SDS011;2105;52.300;9.182;2022-12-18T00:16:26;14.87;;;13.33;;
4182;SDS011;2105;52.300;9.182;2022-12-18T00:18:55;14.50;;;13.20;;
4182;SDS011;2105;52.300;9.182;2022-12-18T00:21:23;16.67;;;15.07;;
4182;SDS011;2105;52.300;9.182;2022-12-18T00:23:49;16.97;;;15.20;;
4182;SDS011;2105;52.300;9.182;2022-12-18T00:26:20;17.40;;;15.50;;
4182;SDS011;2105;52.300;9.182;2022-12-18T00:28:50;17.80;;;15.90;;
4182;SDS011;2105;52.300;9.182;2022-12-18T00:31:18;16.10;;;14.60;;
4182;SDS011;2105;52.300;9.182;2022-12-18T00:33:46;15.60;;;14.10;;
4182;SDS011;2105;52.300;9.182;2022-12-18T00:36:14;16.03;;;14.60;;
4182;SDS011;2105;52.300;9.182;2022-12-18T00:38:42;16.20;;;14.60;;
4182;SDS011;2105;52.300;9.182;2022-12-18T00:41:10;16.27;;;14.73;;
4182;SDS011;2105;52.300;9.182;2022-12-18T00:43:39;16.37;;;14.43;;
4182;SDS011;2105;52.300;9.182;2022-12-18T00:46:06;15.43;;;13.93;;
4182;SDS011;2105;52.300;9.182;2022-12-18T00:48:33;17.17;;;14.23;;
4182;SDS011;2105;52.300;9.182;2022-12-18T00:51:00;17.10;;;13.37;;
4182;SDS011;2105;52.300;9.182;2022-12-18T00:53:26;15.10;;;13.77;;
4182;SDS011;2105;52.300;9.182;2022-12-18T00:55:53;15.60;;;13.93;;
4182;SDS011;2105;52.300;9.182;2022-12-18T00:58:20;14.70;;;13.30;;
4182;SDS011;2105;52.300;9.182;2022-12-18T01:00:46;16.20;;;14.67;;
4182;SDS011;2105;52.300;9.182;2022-12-18T01:03:14;17.27;;;14.87;;
4182;SDS011;2105;52.300;9.182;2022-12-18T01:05:41;14.73;;;13.23;;
4182;SDS011;2105;52.300;9.182;2022-12-18T01:08:08;14.03;;;12.60;;
4182;SDS011;2105;52.300;9.182;2022-12-18T01:10:35;16.60;;;13.67;;
4182;SDS011;2105;52.300;9.182;2022-12-18T01:13:02;14.23;;;12.93;;
4182;SDS011;2105;52.300;9.182;2022-12-18T01:15:29;15.07;;;13.57;;
4182;SDS011;2105;52.300;9.182;2022-12-18T01:17:55;14.93;;;13.57;;
4182;SDS011;2105;52.300;9.182;2022-12-18T01:20:23;15.83;;;14.17;;
4182;SDS011;2105;52.300;9.182;2022-12-18T01:22:50;14.87;;;13.40;;
4182;SDS011;2105;52.300;9.182;2022-12-18T01:25:17;15.03;;;13.70;;
4182;SDS011;2105;52.300;9.182;2022-12-18T01:27:44;15.20;;;13.80;;
4182;SDS011;2105;52.300;9.182;2022-12-18T01:30:11;15.00;;;13.50;;
4182;SDS011;2105;52.300;9.182;2022-12-18T01:32:38;15.13;;;13.80;;
4182;SDS011;2105;52.300;9.182;2022-12-18T01:35:05;16.10;;;14.50;;
4182;SDS011;2105;52.300;9.182;2022-12-18T01:37:34;15.53;;;13.47;;
4182;SDS011;2105;52.300;9.182;2022-12-18T01:40:00;14.83;;;13.43;;
4182;SDS011;2105;52.300;9.182;2022-12-18T01:42:27;14.50;;;13.10;;
4182;SDS011;2105;52.300;9.182;2022-12-18T01:44:59;14.43;;;13.13;;
4182;SDS011;2105;52.300;9.182;2022-12-18T01:47:30;14.30;;;12.90;;
4182;SDS011;2105;52.300;9.182;2022-12-18T01:50:02;14.40;;;13.10;;
4182;SDS011;2105;52.300;9.182;2022-12-18T01:52:33;15.87;;;14.30;;
4182;SDS011;2105;52.300;9.182;2022-12-18T01:55:02;14.70;;;12.80;;
4182;SDS011;2105;52.300;9.182;2022-12-18T01:57:30;16.43;;;13.57;;
4182;SDS011;2105;52.300;9.182;2022-12-18T01:59:59;15.40;;;13.93;;
4182;SDS011;2105;52.300;9.182;2022-12-18T02:02:27;14.13;;;12.80;;
4182;SDS011;2105;52.300;9.182;2022-12-18T02:04:55;14.50;;;13.10;;
4182;SDS011;2105;52.300;9.182;2022-12-18T02:07:23;14.10;;;12.90;;
4182;SDS011;2105;52.300;9.182;2022-12-18T02:09:58;13.77;;;12.57;;
4182;SDS011;2105;52.300;9.182;2022-12-18T02:12:30;16.07;;;13.17;;
4182;SDS011;2105;52.300;9.182;2022-12-18T02:15:07;12.23;;;11.30;;
4182;SDS011;2105;52.300;9.182;2022-12-18T02:17:39;11.80;;;11.00;;
4182;SDS011;2105;52.300;9.182;2022-12-18T02:20:12;12.60;;;11.50;;
4182;SDS011;2105;52.300;9.182;2022-12-18T02:22:45;13.80;;;12.40;;
4182;SDS011;2105;52.300;9.182;2022-12-18T02:25:53;13.33;;;12.03;;
4182;SDS011;2105;52.300;9.182;2022-12-18T02:28:33;13.10;;;11.87;;
4182;SDS011;2105;52.300;9.182;2022-12-18T02:31:02;13.70;;;12.40;;
4182;SDS011;2105;52.300;9.182;2022-12-18T02:33:32;15.90;;;13.93;;
4182;SDS011;2105;52.300;9.182;2022-12-18T02:36:00;13.73;;;12.43;;
4182;SDS011;2105;52.300;9.182;2022-12-18T02:38:29;13.80;;;12.40;;
4182;SDS011;2105;52.300;9.182;2022-12-18T02:40:58;14.03;;;12.77;;
4182;SDS011;2105;52.300;9.182;2022-12-18T02:43:26;13.77;;;12.60;;
4182;SDS011;2105;52.300;9.182;2022-12-18T02:45:53;14.17;;;13.00;;
4182;SDS011;2105;52.300;9.182;2022-12-18T02:48:24;14.20;;;12.90;;
4182;SDS011;2105;52.300;9.182;2022-12-18T02:50:57;15.20;;;13.60;;
4182;SDS011;2105;52.300;9.182;2022-12-18T02:53:30;13.83;;;12.50;;
4182;SDS011;2105;52.300;9.182;2022-12-18T02:56:05;14.33;;;13.13;;
4182;SDS011;2105;52.300;9.182;2022-12-18T02:58:37;14.63;;;13.33;;
4182;SDS011;2105;52.300;9.182;2022-12-18T03:01:13;15.67;;;13.90;;
4182;SDS011;2105;52.300;9.182;2022-12-18T03:03:46;14.23;;;13.00;;
4182;SDS011;2105;52.300;9.182;2022-12-18T03:06:18;15.17;;;13.63;;
4182;SDS011;2105;52.300;9.182;2022-12-18T03:08:50;14.10;;;12.70;;
4182;SDS011;2105;52.300;9.182;2022-12-18T03:11:24;13.97;;;12.67;;
4182;SDS011;2105;52.300;9.182;2022-12-18T03:14:08;14.93;;;13.53;;
4182;SDS011;2105;52.300;9.182;2022-12-18T03:16:36;17.80;;;12.47;;
4182;SDS011;2105;52.300;9.182;2022-12-18T03:19:04;14.03;;;12.83;;
4182;SDS011;2105;52.300;9.182;2022-12-18T03:21:38;14.30;;;13.00;;
4182;SDS011;2105;52.300;9.182;2022-12-18T03:24:07;14.90;;;13.60;;
4182;SDS011;2105;52.300;9.182;2022-12-18T03:26:38;15.00;;;13.73;;
4182;SDS011;2105;52.300;9.182;2022-12-18T03:29:09;15.77;;;14.27;;
4182;SDS011;2105;52.300;9.182;2022-12-18T03:31:40;15.77;;;14.37;;
4182;SDS011;2105;52.300;9.182;2022-12-18T03:34:09;15.27;;;13.90;;
4182;SDS011;2105;52.300;9.182;2022-12-18T03:36:41;15.77;;;14.17;;
4182;SDS011;2105;52.300;9.182;2022-12-18T03:39:08;14.97;;;13.60;;
4182;SDS011;2105;52.300;9.182;2022-12-18T03:41:41;15.27;;;13.70;;
4182;SDS011;2105;52.300;9.182;2022-12-18T03:44:18;15.00;;;13.40;;
4182;SDS011;2105;52.300;9.182;2022-12-18T03:46:53;16.40;;;14.70;;
4182;SDS011;2105;52.300;9.182;2022-12-18T03:49:25;15.63;;;14.03;;
4182;SDS011;2105;52.300;9.182;2022-12-18T03:52:00;15.23;;;13.63;;
4182;SDS011;2105;52.300;9.182;2022-12-18T03:54:29;15.93;;;14.53;;
4182;SDS011;2105;52.300;9.182;2022-12-18T03:57:01;16.27;;;14.73;;
4182;SDS011;2105;52.300;9.182;2022-12-18T03:59:32;15.83;;;14.20;;
4182;SDS011;2105;52.300;9.182;2022-12-18T04:02:00;15.70;;;14.10;;
4182;SDS011;2105;52.300;9.182;2022-12-18T04:04:29;13.83;;;12.73;;
4182;SDS011;2105;52.300;9.182;2022-12-18T04:06:57;15.73;;;12.23;;
4182;SDS011;2105;52.300;9.182;2022-12-18T04:09:25;15.80;;;14.30;;
4182;SDS011;2105;52.300;9.182;2022-12-18T04:11:52;13.70;;;12.60;;
4182;SDS011;2105;52.300;9.182;2022-12-18T04:14:20;15.07;;;13.57;;
4182;SDS011;2105;52.300;9.182;2022-12-18T04:16:47;14.93;;;13.50;;
4182;SDS011;2105;52.300;9.182;2022-12-18T04:19:14;13.63;;;12.53;;
4182;SDS011;2105;52.300;9.182;2022-12-18T04:21:41;15.03;;;13.50;;
4182;SDS011;2105;52.300;9.182;2022-12-18T04:24:07;16.20;;;14.73;;
4182;SDS011;2105;52.300;9.182;2022-12-18T04:26:34;18.00;;;13.97;;
4182;SDS011;2105;52.300;9.182;2022-12-18T04:29:01;14.47;;;13.00;;
4182;SDS011;2105;52.300;9.182;2022-12-18T04:31:30;15.67;;;14.17;;
4182;SDS011;2105;52.300;9.182;2022-12-18T04:33:56;16.17;;;14.30;;
4182;SDS011;2105;52.300;9.182;2022-12-18T04:36:23;14.57;;;13.30;;
4182;SDS011;2105;52.300;9.182;2022-12-18T04:38:50;15.50;;;14.00;;
4182;SDS011;2105;52.300;9.182;2022-12-18T04:41:16;16.27;;;14.67;;
4182;SDS011;2105;52.300;9.182;2022-12-18T04:43:43;15.20;;;13.80;;
4182;SDS011;2105;52.300;9.182;2022-12-18T04:46:10;15.03;;;13.70;;
4182;SDS011;2105;52.300;9.182;2022-12-18T04:48:38;15.53;;;14.00;;
4182;SDS011;2105;52.300;9.182;2022-12-18T04:51:05;15.17;;;13.87;;
4182;SDS011;2105;52.300;9.182;2022-12-18T04:53:32;15.30;;;13.90;;
4182;SDS011;2105;52.300;9.182;2022-12-18T04:56:03;15.70;;;14.30;;
4182;SDS011;2105;52.300;9.182;2022-12-18T04:58:31;18.20;;;14.17;;
4182;SDS011;2105;52.300;9.182;2022-12-18T05:00:58;15.77;;;14.37;;
4182;SDS011;2105;52.300;9.182;2022-12-18T05:03:25;16.20;;;14.20;;
4182;SDS011;2105;52.300;9.182;2022-12-18T05:05:53;15.67;;;14.27;;
4182;SDS011;2105;52.300;9.182;2022-12-18T05:08:19;15.20;;;13.80;;
4182;SDS011;2105;52.300;9.182;2022-12-18T05:10:46;15.20;;;13.80;;
4182;SDS011;2105;52.300;9.182;2022-12-18T05:13:13;15.23;;;13.80;;
4182;SDS011;2105;52.300;9.182;2022-12-18T05:15:40;15.30;;;13.80;;
4182;SDS011;2105;52.300;9.182;2022-12-18T05:18:07;15.00;;;13.70;;
4182;SDS011;2105;52.300;9.182;2022-12-18T05:20:34;15.30;;;13.80;;
4182;SDS011;2105;52.300;9.182;2022-12-18T05:23:02;14.50;;;13.13;;
4182;SDS011;2105;52.300;9.182;2022-12-18T05:25:29;15.13;;;13.63;;
4182;SDS011;2105;52.300;9.182;2022-12-18T05:27:55;15.00;;;13.50;;
4182;SDS011;2105;52.300;9.182;2022-12-18T05:30:22;14.67;;;13.37;;
4182;SDS011;2105;52.300;9.182;2022-12-18T05:32:49;15.20;;;13.90;;
4182;SDS011;2105;52.300;9.182;2022-12-18T05:35:16;15.77;;;13.60;;
4182;SDS011;2105;52.300;9.182;2022-12-18T05:37:42;15.70;;;14.30;;
4182;SDS011;2105;52.300;9.182;2022-12-18T05:40:11;15.80;;;14.40;;
4182;SDS011;2105;52.300;9.182;2022-12-18T05:42:38;14.90;;;13.70;;
4182;SDS011;2105;52.300;9.182;2022-12-18T05:45:05;14.70;;;13.40;;
4182;SDS011;2105;52.300;9.182;2022-12-18T05:47:33;15.43;;;13.83;;
4182;SDS011;2105;52.300;9.182;2022-12-18T05:49:59;15.73;;;14.23;;
4182;SDS011;2105;52.300;9.182;2022-12-18T05:52:26;13.80;;;12.70;;
4182;SDS011;2105;52.300;9.182;2022-12-18T05:54:53;15.20;;;13.70;;
4182;SDS011;2105;52.300;9.182;2022-12-18T05:57:21;15.40;;;13.50;;
4182;SDS011;2105;52.300;9.182;2022-12-18T05:59:48;14.10;;;12.70;;
4182;SDS011;2105;52.300;9.182;2022-12-18T06:02:14;16.73;;;13.10;;
4182;SDS011;2105;52.300;9.182;2022-12-18T06:04:41;15.87;;;13.93;;
4182;SDS011;2105;52.300;9.182;2022-12-18T06:07:08;14.80;;;13.20;;
4182;SDS011;2105;52.300;9.182;2022-12-18T06:09:34;14.60;;;13.20;;
4182;SDS011;2105;52.300;9.182;2022-12-18T06:12:01;14.10;;;12.90;;
4182;SDS011;2105;52.300;9.182;2022-12-18T06:14:29;14.60;;;13.40;;
4182;SDS011;2105;52.300;9.182;2022-12-18T06:16:56;15.33;;;13.93;;
4182;SDS011;2105;52.300;9.182;2022-12-18T06:19:23;15.00;;;13.50;;
4182;SDS011;2105;52.300;9.182;2022-12-18T06:21:49;15.87;;;14.33;;
4182;SDS011;2105;52.300;9.182;2022-12-18T06:24:16;14.80;;;13.40;;
4182;SDS011;2105;52.300;9.182;2022-12-18T06:26:43;16.10;;;14.50;;
4182;SDS011;2105;52.300;9.182;2022-12-18T06:29:10;15.57;;;14.10;;
4182;SDS011;2105;52.300;9.182;2022-12-18T06:31:38;15.97;;;13.53;;
4182;SDS011;2105;52.300;9.182;2022-12-18T06:34:05;14.70;;;13.33;;
4182;SDS011;2105;52.300;9.182;2022-12-18T06:36:32;15.73;;;14.33;;
4182;SDS011;2105;52.300;9.182;2022-12-18T06:38:58;14.10;;;12.90;;
4182;SDS011;2105;52.300;9.182;2022-12-18T06:41:25;14.03;;;12.97;;
4182;SDS011;2105;52.300;9.182;2022-12-18T06:43:52;14.80;;;13.60;;
4182;SDS011;2105;52.300;9.182;2022-12-18T06:46:19;15.40;;;13.80;;
4182;SDS011;2105;52.300;9.182;2022-12-18T06:48:48;14.50;;;13.10;;
4182;SDS011;2105;52.300;9.182;2022-12-18T06:51:16;13.77;;;12.67;;
4182;SDS011;2105;52.300;9.182;2022-12-18T06:53:44;15.10;;;13.80;;
4182;SDS011;2105;52.300;9.182;2022-12-18T06:56:11;15.27;;;14.07;;
4182;SDS011;2105;52.300;9.182;2022-12-18T06:58:38;18.23;;;13.80;;
4182;SDS011;2105;52.300;9.182;2022-12-18T07:01:05;14.73;;;13.53;;
4182;SDS011;2105;52.300;9.182;2022-12-18T07:03:33;15.53;;;14.23;;
4182;SDS011;2105;52.300;9.182;2022-12-18T07:06:01;16.20;;;14.73;;
4182;SDS011;2105;52.300;9.182;2022-12-18T07:08:29;15.27;;;13.90;;
4182;SDS011;2105;52.300;9.182;2022-12-18T07:10:56;15.40;;;14.10;;
4182;SDS011;2105;52.300;9.182;2022-12-18T07:13:23;15.80;;;14.40;;
4182;SDS011;2105;52.300;9.182;2022-12-18T07:15:49;16.53;;;14.80;;
4182;SDS011;2105;52.300;9.182;2022-12-18T07:18:16;15.43;;;14.07;;
4182;SDS011;2105;52.300;9.182;2022-12-18T07:20:43;15.27;;;13.80;;
4182;SDS011;2105;52.300;9.182;2022-12-18T07:23:11;15.60;;;14.10;;
4182;SDS011;2105;52.300;9.182;2022-12-18T07:25:38;16.13;;;14.40;;
4182;SDS011;2105;52.300;9.182;2022-12-18T07:28:05;14.87;;;13.60;;
4182;SDS011;2105;52.300;9.182;2022-12-18T07:30:32;16.27;;;14.77;;
4182;SDS011;2105;52.300;9.182;2022-12-18T07:32:59;15.00;;;13.50;;
4182;SDS011;2105;52.300;9.182;2022-12-18T07:35:25;23.50;;;17.80;;
4182;SDS011;2105;52.300;9.182;2022-12-18T07:37:52;19.70;;;16.93;;
4182;SDS011;2105;52.300;9.182;2022-12-18T07:40:20;15.77;;;14.20;;
4182;SDS011;2105;52.300;9.182;2022-12-18T07:42:47;15.10;;;13.80;;
4182;SDS011;2105;52.300;9.182;2022-12-18T07:45:14;15.57;;;14.03;;
4182;SDS011;2105;52.300;9.182;2022-12-18T07:47:40;16.03;;;14.67;;
4182;SDS011;2105;52.300;9.182;2022-12-18T07:50:07;16.33;;;14.73;;
4182;SDS011;2105;52.300;9.182;2022-12-18T07:52:34;16.37;;;14.50;;
4182;SDS011;2105;52.300;9.182;2022-12-18T07:55:01;18.27;;;14.53;;
4182;SDS011;2105;52.300;9.182;2022-12-18T07:57:29;14.67;;;13.43;;
4182;SDS011;2105;52.300;9.182;2022-12-18T07:59:56;15.73;;;14.33;;
4182;SDS011;2105;52.300;9.182;2022-12-18T08:02:23;17.43;;;15.37;;
4182;SDS011;2105;52.300;9.182;2022-12-18T08:04:50;15.73;;;14.33;;
4182;SDS011;2105;52.300;9.182;2022-12-18T08:07:16;16.43;;;14.97;;
4182;SDS011;2105;52.300;9.182;2022-12-18T08:09:43;17.37;;;15.67;;
4182;SDS011;2105;52.300;9.182;2022-12-18T08:12:10;17.07;;;15.30;;
4182;SDS011;2105;52.300;9.182;2022-12-18T08:14:38;15.70;;;14.17;;
4182;SDS011;2105;52.300;9.182;2022-12-18T08:17:04;15.13;;;13.83;;
4182;SDS011;2105;52.300;9.182;2022-12-18T08:19:31;15.93;;;13.40;;
4182;SDS011;2105;52.300;9.182;2022-12-18T08:21:58;15.00;;;13.80;;
4182;SDS011;2105;52.300;9.182;2022-12-18T08:24:25;15.73;;;14.10;;
4182;SDS011;2105;52.300;9.182;2022-12-18T08:26:51;14.17;;;12.93;;
4182;SDS011;2105;52.300;9.182;2022-12-18T08:29:18;14.70;;;13.50;;
4182;SDS011;2105;52.300;9.182;2022-12-18T08:31:46;14.80;;;13.70;;
4182;SDS011;2105;52.300;9.182;2022-12-18T08:34:13;15.27;;;14.03;;
4182;SDS011;2105;52.300;9.182;2022-12-18T08:36:40;15.63;;;14.23;;
4182;SDS011;2105;52.300;9.182;2022-12-18T08:39:07;14.40;;;13.30;;
4182;SDS011;2105;52.300;9.182;2022-12-18T08:41:33;15.43;;;14.23;;
4182;SDS011;2105;52.300;9.182;2022-12-18T08:44:00;15.00;;;13.80;;
4182;SDS011;2105;52.300;9.182;2022-12-18T08:46:44;14.47;;;13.00;;
4182;SDS011;2105;52.300;9.182;2022-12-18T08:49:13;15.03;;;13.93;;
4182;SDS011;2105;52.300;9.182;2022-12-18T08:51:39;15.17;;;14.07;;
4182;SDS011;2105;52.300;9.182;2022-12-18T08:54:06;16.77;;;14.93;;
4182;SDS011;2105;52.300;9.182;2022-12-18T08:56:33;15.47;;;14.23;;
4182;SDS011;2105;52.300;9.182;2022-12-18T08:59:00;16.30;;;14.80;;
4182;SDS011;2105;52.300;9.182;2022-12-18T09:01:27;15.57;;;14.30;;
4182;SDS011;2105;52.300;9.182;2022-12-18T09:03:55;14.90;;;13.57;;
4182;SDS011;2105;52.300;9.182;2022-12-18T09:06:22;14.50;;;13.40;;
4182;SDS011;2105;52.300;9.182;2022-12-18T09:08:51;15.43;;;14.27;;
4182;SDS011;2105;52.300;9.182;2022-12-18T09:11:19;15.73;;;14.63;;
4182;SDS011;2105;52.300;9.182;2022-12-18T09:13:48;15.40;;;14.33;;
4182;SDS011;2105;52.300;9.182;2022-12-18T09:16:15;15.37;;;14.10;;
4182;SDS011;2105;52.300;9.182;2022-12-18T09:18:42;15.03;;;13.93;;
4182;SDS011;2105;52.300;9.182;2022-12-18T09:21:11;14.80;;;13.80;;
4182;SDS011;2105;52.300;9.182;2022-12-18T09:23:39;15.70;;;14.60;;
4182;SDS011;2105;52.300;9.182;2022-12-18T09:26:06;15.17;;;14.13;;
4182;SDS011;2105;52.300;9.182;2022-12-18T09:28:33;15.67;;;14.50;;
4182;SDS011;2105;52.300;9.182;2022-12-18T09:31:03;15.20;;;14.10;;
4182;SDS011;2105;52.300;9.182;2022-12-18T09:33:31;15.83;;;14.60;;
4182;SDS011;2105;52.300;9.182;2022-12-18T09:36:00;15.90;;;14.80;;
4182;SDS011;2105;52.300;9.182;2022-12-18T09:38:29;16.47;;;15.07;;
4182;SDS011;2105;52.300;9.182;2022-12-18T09:40:57;15.30;;;14.20;;
4182;SDS011;2105;52.300;9.182;2022-12-18T09:43:28;15.80;;;14.47;;
4182;SDS011;2105;52.300;9.182;2022-12-18T09:46:14;15.50;;;14.30;;
4182;SDS011;2105;52.300;9.182;2022-12-18T09:48:46;15.30;;;14.20;;
4182;SDS011;2105;52.300;9.182;2022-12-18T09:51:18;16.10;;;14.80;;
4182;SDS011;2105;52.300;9.182;2022-12-18T09:53:51;15.83;;;14.63;;
4182;SDS011;2105;52.300;9.182;2022-12-18T09:56:21;14.90;;;13.63;;
4182;SDS011;2105;52.300;9.182;2022-12-18T09:58:50;14.83;;;13.83;;
4182;SDS011;2105;52.300;9.182;2022-12-18T10:01:21;15.50;;;14.40;;
4182;SDS011;2105;52.300;9.182;2022-12-18T10:03:49;15.50;;;14.10;;
4182;SDS011;2105;52.300;9.182;2022-12-18T10:06:18;15.77;;;14.37;;
4182;SDS011;2105;52.300;9.182;2022-12-18T10:08:53;15.17;;;14.13;;
4182;SDS011;2105;52.300;9.182;2022-12-18T10:11:32;16.20;;;14.90;;
4182;SDS011;2105;52.300;9.182;2022-12-18T10:14:08;16.67;;;15.17;;
4182;SDS011;2105;52.300;9.182;2022-12-18T10:16:44;41.67;;;15.50;;
4182;SDS011;2105;52.300;9.182;2022-12-18T10:19:33;16.50;;;15.20;;
4182;SDS011;2105;52.300;9.182;2022-12-18T10:22:09;15.50;;;14.30;;
4182;SDS011;2105;52.300;9.182;2022-12-18T10:24:45;15.50;;;14.10;;
4182;SDS011;2105;52.300;9.182;2022-12-18T10:27:21;15.47;;;14.27;;
4182;SDS011;2105;52.300;9.182;2022-12-18T10:29:50;15.60;;;14.30;;
4182;SDS011;2105;52.300;9.182;2022-12-18T10:32:17;15.50;;;14.40;;
4182;SDS011;2105;52.300;9.182;2022-12-18T10:34:45;15.67;;;14.57;;
4182;SDS011;2105;52.300;9.182;2022-12-18T10:37:14;15.77;;;14.57;;
4182;SDS011;2105;52.300;9.182;2022-12-18T10:39:44;15.33;;;14.13;;
4182;SDS011;2105;52.300;9.182;2022-12-18T10:42:16;15.70;;;14.30;;
4182;SDS011;2105;52.300;9.182;2022-12-18T10:44:44;15.50;;;14.40;;
4182;SDS011;2105;52.300;9.182;2022-12-18T10:47:12;15.13;;;13.93;;
4182;SDS011;2105;52.300;9.182;2022-12-18T10:49:46;15.13;;;14.03;;
4182;SDS011;2105;52.300;9.182;2022-12-18T10:52:17;15.37;;;14.07;;
4182;SDS011;2105;52.300;9.182;2022-12-18T10:54:50;14.80;;;13.70;;
4182;SDS011;2105;52.300;9.182;2022-12-18T10:57:29;13.60;;;12.60;;
4182;SDS011;2105;52.300;9.182;2022-12-18T11:00:00;15.23;;;14.03;;
4182;SDS011;2105;52.300;9.182;2022-12-18T11:02:55;15.70;;;14.50;;
4182;SDS011;2105;52.300;9.182;2022-12-18T11:05:24;15.90;;;14.60;;
4182;SDS011;2105;52.300;9.182;2022-12-18T11:07:53;16.60;;;15.30;;
4182;SDS011;2105;52.300;9.182;2022-12-18T11:10:22;16.70;;;15.40;;
4182;SDS011;2105;52.300;9.182;2022-12-18T11:12:51;16.33;;;15.00;;
4182;SDS011;2105;52.300;9.182;2022-12-18T11:15:19;16.30;;;15.00;;
4182;SDS011;2105;52.300;9.182;2022-12-18T11:17:49;15.80;;;14.50;;
4182;SDS011;2105;52.300;9.182;2022-12-18T11:20:22;17.83;;;14.70;;
4182;SDS011;2105;52.300;9.182;2022-12-18T11:22:57;16.30;;;14.90;;
4182;SDS011;2105;52.300;9.182;2022-12-18T11:25:27;16.00;;;14.80;;
4182;SDS011;2105;52.300;9.182;2022-12-18T11:27:55;15.87;;;14.67;;
4182;SDS011;2105;52.300;9.182;2022-12-18T11:30:25;16.63;;;15.33;;
4182;SDS011;2105;52.300;9.182;2022-12-18T11:32:54;17.13;;;15.33;;
4182;SDS011;2105;52.300;9.182;2022-12-18T11:35:26;17.33;;;15.63;;
4182;SDS011;2105;52.300;9.182;2022-12-18T11:38:05;16.73;;;15.23;;
4182;SDS011;2105;52.300;9.182;2022-12-18T11:40:40;16.47;;;14.90;;
4182;SDS011;2105;52.300;9.182;2022-12-18T11:43:10;16.50;;;15.10;;
4182;SDS011;2105;52.300;9.182;2022-12-18T11:45:43;16.07;;;14.57;;
4182;SDS011;2105;52.300;9.182;2022-12-18T11:48:16;16.20;;;14.70;;
4182;SDS011;2105;52.300;9.182;2022-12-18T11:50:48;17.13;;;15.63;;
4182;SDS011;2105;52.300;9.182;2022-12-18T11:53:16;15.70;;;14.50;;
4182;SDS011;2105;52.300;9.182;2022-12-18T11:55:49;16.20;;;14.90;;
4182;SDS011;2105;52.300;9.182;2022-12-18T11:58:26;16.47;;;15.00;;
4182;SDS011;2105;52.300;9.182;2022-12-18T12:01:04;15.10;;;14.00;;
4182;SDS011;2105;52.300;9.182;2022-12-18T12:03:51;16.07;;;14.77;;
4182;SDS011;2105;52.300;9.182;2022-12-18T12:06:31;15.63;;;14.30;;
4182;SDS011;2105;52.300;9.182;2022-12-18T12:09:07;16.97;;;15.30;;
4182;SDS011;2105;52.300;9.182;2022-12-18T12:11:41;16.53;;;15.20;;
4182;SDS011;2105;52.300;9.182;2022-12-18T12:14:19;20.20;;;16.67;;
4182;SDS011;2105;52.300;9.182;2022-12-18T12:16:58;16.90;;;15.40;;
4182;SDS011;2105;52.300;9.182;2022-12-18T12:19:33;15.93;;;14.63;;
4182;SDS011;2105;52.300;9.182;2022-12-18T12:22:11;16.43;;;14.83;;
4182;SDS011;2105;52.300;9.182;2022-12-18T12:24:48;17.23;;;15.70;;
4182;SDS011;2105;52.300;9.182;2022-12-18T12:27:26;16.67;;;15.17;;
4182;SDS011;2105;52.300;9.182;2022-12-18T12:30:03;16.63;;;15.13;;
4182;SDS011;2105;52.300;9.182;2022-12-18T12:32:45;17.40;;;15.90;;
4182;SDS011;2105;52.300;9.182;2022-12-18T12:35:30;20.90;;;16.17;;
4182;SDS011;2105;52.300;9.182;2022-12-18T12:38:07;17.63;;;16.13;;
4182;SDS011;2105;52.300;9.182;2022-12-18T12:40:38;18.83;;;15.40;;
4182;SDS011;2105;52.300;9.182;2022-12-18T12:43:16;17.57;;;16.00;;
4182;SDS011;2105;52.300;9.182;2022-12-18T12:45:48;18.00;;;16.50;;
4182;SDS011;2105;52.300;9.182;2022-12-18T12:48:22;16.50;;;15.10;;
4182;SDS011;2105;52.300;9.182;2022-12-18T12:50:58;16.93;;;15.63;;
4182;SDS011;2105;52.300;9.182;2022-12-18T12:53:29;17.70;;;16.00;;
4182;SDS011;2105;52.300;9.182;2022-12-18T12:56:00;17.33;;;15.83;;
4182;SDS011;2105;52.300;9.182;2022-12-18T12:58:31;17.13;;;15.80;;
4182;SDS011;2105;52.300;9.182;2022-12-18T13:01:09;17.03;;;15.53;;
4182;SDS011;2105;52.300;9.182;2022-12-18T13:03:42;17.80;;;16.20;;
4182;SDS011;2105;52.300;9.182;2022-12-18T13:06:16;17.80;;;16.10;;
4182;SDS011;2105;52.300;9.182;2022-12-18T13:08:54;18.30;;;16.70;;
4182;SDS011;2105;52.300;9.182;2022-12-18T13:11:32;17.70;;;15.90;;
4182;SDS011;2105;52.300;9.182;2022-12-18T13:14:22;17.30;;;15.70;;
4182;SDS011;2105;52.300;9.182;2022-12-18T13:16:56;17.17;;;15.77;;
4182;SDS011;2105;52.300;9.182;2022-12-18T13:19:50;17.70;;;16.13;;
4182;SDS011;2105;52.300;9.182;2022-12-18T13:22:20;17.87;;;16.37;;
4182;SDS011;2105;52.300;9.182;2022-12-18T13:24:48;17.37;;;15.57;;
4182;SDS011;2105;52.300;9.182;2022-12-18T13:33:34;18.10;;;16.40;;
4182;SDS011;2105;52.300;9.182;2022-12-18T13:36:14;16.50;;;15.00;;
4182;SDS011;2105;52.300;9.182;2022-12-18T13:38:55;18.17;;;16.47;;
4182;SDS011;2105;52.300;9.182;2022-12-18T13:41:37;17.10;;;15.60;;
4182;SDS011;2105;52.300;9.182;2022-12-18T13:44:10;16.63;;;15.00;;
4182;SDS011;2105;52.300;9.182;2022-12-18T13:46:42;15.80;;;14.50;;
4182;SDS011;2105;52.300;9.182;2022-12-18T13:49:17;15.33;;;14.03;;
4182;SDS011;2105;52.300;9.182;2022-12-18T13:51:48;15.30;;;13.67;;
4182;SDS011;2105;52.300;9.182;2022-12-18T13:54:18;15.57;;;13.50;;
4182;SDS011;2105;52.300;9.182;2022-12-18T13:56:47;15.27;;;14.03;;
4182;SDS011;2105;52.300;9.182;2022-12-18T13:59:16;15.23;;;14.03;;
4182;SDS011;2105;52.300;9.182;2022-12-18T14:01:46;15.47;;;14.17;;
4182;SDS011;2105;52.300;9.182;2022-12-18T14:04:25;16.53;;;15.10;;
4182;SDS011;2105;52.300;9.182;2022-12-18T14:06:55;17.20;;;15.60;;
4182;SDS011;2105;52.300;9.182;2022-12-18T14:09:25;15.50;;;14.40;;
4182;SDS011;2105;52.300;9.182;2022-12-18T14:11:54;17.03;;;15.43;;
4182;SDS011;2105;52.300;9.182;2022-12-18T14:14:43;17.10;;;15.50;;
4182;SDS011;2105;52.300;9.182;2022-12-18T14:17:13;19.40;;;17.40;;
4182;SDS011;2105;52.300;9.182;2022-12-18T14:19:43;24.13;;;20.70;;
4182;SDS011;2105;52.300;9.182;2022-12-18T14:22:15;28.53;;;20.17;;
4182;SDS011;2105;52.300;9.182;2022-12-18T14:24:43;20.73;;;18.63;;
4182;SDS011;2105;52.300;9.182;2022-12-18T14:27:22;25.83;;;21.73;;
4182;SDS011;2105;52.300;9.182;2022-12-18T14:29:49;18.67;;;17.03;;
4182;SDS011;2105;52.300;9.182;2022-12-18T14:32:17;23.27;;;19.90;;
4182;SDS011;2105;52.300;9.182;2022-12-18T14:34:47;21.77;;;19.47;;
4182;SDS011;2105;52.300;9.182;2022-12-18T14:37:16;17.00;;;15.57;;
4182;SDS011;2105;52.300;9.182;2022-12-18T14:39:52;18.50;;;16.83;;
4182;SDS011;2105;52.300;9.182;2022-12-18T14:42:21;16.80;;;15.30;;
4182;SDS011;2105;52.300;9.182;2022-12-18T14:44:48;17.37;;;15.97;;
4182;SDS011;2105;52.300;9.182;2022-12-18T14:47:15;16.87;;;15.57;;
4182;SDS011;2105;52.300;9.182;2022-12-18T14:49:42;18.20;;;16.50;;
4182;SDS011;2105;52.300;9.182;2022-12-18T14:52:17;17.93;;;16.23;;
4182;SDS011;2105;52.300;9.182;2022-12-18T14:54:48;19.70;;;16.60;;
4182;SDS011;2105;52.300;9.182;2022-12-18T14:57:18;24.27;;;17.70;;
4182;SDS011;2105;52.300;9.182;2022-12-18T14:59:48;18.03;;;16.23;;
4182;SDS011;2105;52.300;9.182;2022-12-18T15:02:15;16.37;;;14.97;;
4182;SDS011;2105;52.300;9.182;2022-12-18T15:04:47;16.70;;;15.30;;
4182;SDS011;2105;52.300;9.182;2022-12-18T15:07:26;16.40;;;14.80;;
4182;SDS011;2105;52.300;9.182;2022-12-18T15:12:40;23.03;;;16.80;;
4182;SDS011;2105;52.300;9.182;2022-12-18T15:18:13;16.80;;;15.27;;